Bridge Lake, Canada
Current Conditions -  °F | °C
As of 12:00 AM on Saturday 25 Oct 2014 (Local Time) from CYIN Reporting Station
Overcast Overcast  
Wind Chill: 29°   Ceiling: 13000
Heat Index: 36°   Visibility: 9mi
Dew Point: 30°   Wind: 8mph
Humidity: 81%   Direction: 100°E
Pressure: 29.89"   Gusts: NA
Location:  51.48°N, 120.7°W
Report Text: CYIN 250700Z AUTO 10007KT 9SM OVC130 02/M01 A2989 RMK SLP144
Loading
Personal Weather Stations






























Interactive Weather Map
Tropical Storm Tracking
New forecast layout! Learn more

10-Day Weather Forecast

Advertisements
Track Severe Weather on mobile